Time;durP1;ratioP1;P1;durP2;ratioP2;P2;SDS_P1;SDS_P2;PMS_P1;PMS_P2;Temp;Humidity;BMP_temperature;BMP_pressure;BME280_temperature;BME280_humidity;BME280_pressure;Samples;Min_cycle;Max_cycle;Signal;HPM_P1;HPM_P2
2023/08/12 02:11:54;;;;;;;;;;;;;;;;;;;;;
2023/08/12 02:14:47;;;;;;;;;;;;;;;-145.06;100.00;60892.56;4754053;29;19934;-94
2023/08/12 02:17:48;;;;;;;;;;;;;;;;;;;;;
2023/08/12 02:20:42;;;;;;;;;;;;;;;;;;;;;
2023/08/12 02:27:29;;;;;;;;;;;;;;;;;;;;;
2023/08/12 02:34:22;;;;;;;;;;;;;;;-145.06;100.00;60892.56;4713655;29;20485;-92
2023/08/12 02:40:59;;;;;;;;;;;;;;;-145.06;100.00;60892.56;4768842;29;19915;-93
2023/08/12 02:47:50;;;;;;;;;;;;;;;-145.06;100.00;60892.56;4711030;29;20303;-93
2023/08/12 02:50:50;;;;;;;;;;;;;;;;;;;;;
2023/08/12 02:54:04;;;;;;;;;;;;;;;-145.06;100.00;60892.56;4716154;29;19916;-93
2023/08/12 02:57:19;;;;;;;;;;;;;;;;;;;;;
2023/08/12 03:00:03;;;;;;;;;;;;;;;-145.06;100.00;60892.56;4719642;29;19916;-93
2023/08/12 03:03:00;;;;;;;;;;;;;;;;;;;;;
2023/08/12 03:05:55;;;;;;;;;;;;;;;;;;;;;
2023/08/12 03:08:44;;;;;;;;;;;;;;;-145.06;100.00;60892.56;4772474;29;19915;-93
2023/08/12 03:11:23;;;;;;;;;;;;;;;-145.06;100.00;60892.56;4756974;29;20350;-93
2023/08/12 03:14:24;;;;;;;;;;;;;;;-145.06;100.00;60892.56;4758204;29;19954;-92
2023/08/12 03:17:09;;;;;;;;;;;;;;;-145.06;100.00;60892.56;4756343;29;19915;-92
2023/08/12 03:19:58;;;;;;;;;;;;;;;-145.06;100.00;60892.56;4757247;29;19915;-93
2023/08/12 03:22:38;;;;;;;;;;;;;;;-145.06;100.00;60892.56;4721088;29;19919;-92
2023/08/12 03:25:19;;;;;;;;;;;;;;;-145.06;100.00;60892.56;4739117;29;20374;-93
2023/08/12 03:28:09;;;;;;;;;;;;;;;-145.06;100.00;60892.56;4753153;29;19915;-93
2023/08/12 03:31:04;;;;;;;;;;;;;;;-145.06;100.00;60892.56;4739278;29;19919;-91
2023/08/12 03:33:48;;;;;;;;;;;;;;;-145.06;100.00;60892.56;4744764;29;19914;-93
2023/08/12 03:36:38;;;;;;;;;;;;;;;-145.06;100.00;60892.56;4757760;29;19915;-92
2023/08/12 03:39:48;;;;;;;;;;;;;;;;;;;;;
2023/08/12 03:42:39;;;;;;;;;;;;;;;-145.06;100.00;60892.56;4777796;29;19919;-92
2023/08/12 03:45:18;;;;;;;;;;;;;;;-145.06;100.00;60892.56;4756585;29;19969;-93
2023/08/12 03:48:00;;;;;;;;;;;;;;;-145.06;100.00;60892.56;4757108;29;19919;-92
2023/08/12 03:50:49;;;;;;;;;;;;;;;-145.06;100.00;60892.56;4749165;29;19915;-92
2023/08/12 03:53:28;;;;;;;;;;;;;;;-145.06;100.00;60892.56;4737861;29;20355;-94
2023/08/12 03:56:17;;;;;;;;;;;;;;;;;;;;;
2023/08/12 03:59:01;;;;;;;;;;;;;;;-145.06;100.00;60892.56;4758884;29;19915;-92
2023/08/12 04:01:40;;;;;;;;;;;;;;;-145.06;100.00;60892.56;4738002;29;19919;-93
2023/08/12 04:04:22;;;;;;;;;;;;;;;-145.06;100.00;60892.56;4738855;29;19916;-92
2023/08/12 04:07:03;;;;;;;;;;;;;;;-145.06;100.00;60892.56;4737665;29;19915;-92
2023/08/12 04:09:47;;;;;;;;;;;;;;;-145.06;100.00;60892.56;4738348;29;20009;-92
2023/08/12 04:12:29;;;;;;;;;;;;;;;-145.06;100.00;60892.56;4737564;29;19919;-93
2023/08/12 04:15:11;;;;;;;;;;;;;;;-145.06;100.00;60892.56;4737780;29;19915;-93
2023/08/12 04:18:00;;;;;;;;;;;;;;;-145.06;100.00;60892.56;4738279;29;19916;-92
2023/08/12 04:20:39;;;;;;;;;;;;;;;-145.06;100.00;60892.56;4738044;29;19946;-92
2023/08/12 04:23:26;;;;;;;;;;;;;;;-145.06;100.00;60892.56;4738102;29;19919;-92
2023/08/12 04:26:07;;;;;;;;;;;;;;;-145.06;100.00;60892.56;4737618;29;19916;-95
2023/08/12 04:28:54;;;;;;;;;;;;;;;-145.06;100.00;60892.56;4737513;29;20009;-93
2023/08/12 04:31:43;;;;;;;;;;;;;;;-145.06;100.00;60892.56;4737768;29;19958;-93
2023/08/12 04:34:22;;;;;;;;;;;;;;;-145.06;100.00;60892.56;4738189;29;19919;-93
2023/08/12 04:37:04;;;;;;;;;;;;;;;-145.06;100.00;60892.56;4737729;29;19915;-94
2023/08/12 04:39:48;;;;;;;;;;;;;;;-145.06;100.00;60892.56;4754145;29;19918;-93
2023/08/12 04:42:27;;;;;;;;;;;;;;;-145.06;100.00;60892.56;4755880;29;19919;-93
2023/08/12 04:45:11;;;;;;;;;;;;;;;-145.06;100.00;60892.56;4756129;29;19914;-94
2023/08/12 04:47:50;;;;;;;;;;;;;;;-145.06;100.00;60892.56;4753624;29;19915;-94
2023/08/12 04:50:35;;;;;;;;;;;;;;;-145.06;100.00;60892.56;4752989;29;20001;-92
2023/08/12 04:53:16;;;;;;;;;;;;;;;-145.06;100.00;60892.56;4753173;29;19915;-93
2023/08/12 04:55:58;;;;;;;;;;;;;;;-145.06;100.00;60892.56;4754362;29;20361;-92
2023/08/12 04:58:39;;;;;;;;;;;;;;;-145.06;100.00;60892.56;4756689;29;20243;-93
2023/08/12 05:01:18;;;;;;;;;;;;;;;-145.06;100.00;60892.56;4761229;29;19919;-93
2023/08/12 05:04:03;;;;;;;;;;;;;;;-145.06;100.00;60892.56;4738372;29;19915;-93
2023/08/12 05:06:47;;;;;;;;;;;;;;;-145.06;100.00;60892.56;4738374;29;20255;-93
2023/08/12 05:09:31;;;;;;;;;;;;;;;-145.06;100.00;60892.56;4750399;29;19915;-93
2023/08/12 05:12:16;;;;;;;;;;;;;;;-145.06;100.00;60892.56;4756414;29;19915;-92
2023/08/12 05:15:03;;;;;;;;;;;;;;;-145.06;100.00;60892.56;4756673;29;19915;-93
2023/08/12 06:25:39;;;;;;;;;;;;;;;-145.06;100.00;60892.56;5553854;23;19978;-94
2023/08/12 06:28:24;;;;;;;;;;;;;;;-145.06;100.00;60892.56;4736608;29;19923;-93
2023/08/12 06:31:06;;;;;;;;;;;;;;;-145.06;100.00;60892.56;4743348;29;19919;-92
2023/08/12 06:33:53;;;;;;;;;;;;;;;-145.06;100.00;60892.56;4755349;29;19915;-92
2023/08/12 06:36:33;;;;;;;;;;;;;;;-145.06;100.00;60892.56;4744957;29;19915;-90
2023/08/12 06:39:11;;;;;;;;;;;;;;;-145.06;100.00;60892.56;4739393;29;19955;-93
2023/08/12 06:41:52;;;;;;;;;;;;;;;-145.06;100.00;60892.56;4740210;29;19920;-92
2023/08/12 06:44:31;;;;;;;;;;;;;;;-145.06;100.00;60892.56;4739072;29;19990;-91
2023/08/12 06:47:31;;;;;;;;;;;;;;;;;;;;;
2023/08/12 06:50:27;;;;;;;;;;;;;;;;;;;;;
2023/08/12 06:53:15;;;;;;;;;;;;;;;-145.06;100.00;60892.56;4759703;29;19915;-95
2023/08/12 06:56:04;;;;;;;;;;;;;;;-145.06;100.00;60892.56;4739716;29;19915;-93
2023/08/12 06:58:46;;;;;;;;;;;;;;;-145.06;100.00;60892.56;4738556;29;19915;-93
2023/08/12 07:01:37;;;;;;;;;;;;;;;-145.06;100.00;60892.56;4739986;29;19919;-93
2023/08/12 07:04:16;;;;;;;;;;;;;;;-145.06;100.00;60892.56;4739054;29;20267;-93
2023/08/12 07:07:12;;;;;;;;;;;;;;;;;;;;;
2023/08/12 07:09:54;;;;;;;;;;;;;;;-145.06;100.00;60892.56;4757071;29;19959;-93
2023/08/12 07:12:32;;;;;;;;;;;;;;;-145.06;100.00;60892.56;4739249;29;19915;-93
2023/08/12 07:15:14;;;;;;;;;;;;;;;-145.06;100.00;60892.56;4738317;29;19950;-94
2023/08/12 07:18:03;;;;;;;;;;;;;;;;;;;;;
2023/08/12 07:20:45;;;;;;;;;;;;;;;-145.06;100.00;60892.56;4752563;29;20449;-93
2023/08/12 07:23:28;;;;;;;;;;;;;;;-145.06;100.00;60892.56;4735598;29;19969;-94
2023/08/12 07:26:28;;;;;;;;;;;;;;;-145.06;100.00;60892.56;4736027;29;19920;-94
2023/08/12 07:29:33;;;;;;;;;;;;;;;-145.06;100.00;60892.56;4735974;29;19915;-92
2023/08/12 07:32:18;;;;;;;;;;;;;;;-145.06;100.00;60892.56;4735685;29;19915;-94
2023/08/12 07:35:32;;;;;;;;;;;;;;;-145.06;100.00;60892.56;4743796;29;19915;-93
2023/08/12 07:38:34;;;;;;;;;;;;;;;-145.06;100.00;60892.56;4755183;29;19915;-94
2023/08/12 07:41:27;;;;;;;;;;;;;;;-145.06;100.00;60892.56;4753660;29;19915;-92
2023/08/12 07:44:09;;;;;;;;;;;;;;;-145.06;100.00;60892.56;4753998;29;19914;-94
2023/08/12 07:46:50;;;;;;;;;;;;;;;-145.06;100.00;60892.56;4753917;29;19915;-93
2023/08/12 07:49:41;;;;;;;;;;;;;;;-145.06;100.00;60892.56;4753794;29;19915;-94
2023/08/12 07:52:28;;;;;;;;;;;;;;;-145.06;100.00;60892.56;4753161;29;19915;-93
2023/08/12 07:55:10;;;;;;;;;;;;;;;-145.06;100.00;60892.56;4753964;29;19914;-93
2023/08/12 07:57:51;;;;;;;;;;;;;;;-145.06;100.00;60892.56;4753816;29;19919;-93
2023/08/12 08:00:34;;;;;;;;;;;;;;;-145.06;100.00;60892.56;4753524;29;19915;-94
2023/08/12 08:03:16;;;;;;;;;;;;;;;-145.06;100.00;60892.56;4753619;29;19919;-94
2023/08/12 08:06:10;;;;;;;;;;;;;;;-145.06;100.00;60892.56;4753683;29;19915;-94
2023/08/12 08:08:49;;;;;;;;;;;;;;;-145.06;100.00;60892.56;4753954;29;19946;-93
2023/08/12 08:11:28;;;;;;;;;;;;;;;-145.06;100.00;60892.56;4752488;29;20258;-93
2023/08/12 08:14:10;;;;;;;;;;;;;;;-145.06;100.00;60892.56;4767816;29;19918;-93
2023/08/12 08:16:52;;;;;;;;;;;;;;;-145.06;100.00;60892.56;4753377;29;19923;-93
2023/08/12 08:19:31;;;;;;;;;;;;;;;-145.06;100.00;60892.56;4753450;29;19915;-93
2023/08/12 08:22:12;;;;;;;;;;;;;;;-145.06;100.00;60892.56;4753165;29;19966;-93
2023/08/12 08:24:51;;;;;;;;;;;;;;;-145.06;100.00;60892.56;4753876;29;19915;-93
2023/08/12 08:27:31;;;;;;;;;;;;;;;-145.06;100.00;60892.56;4753659;29;20518;-94
2023/08/12 08:30:11;;;;;;;;;;;;;;;-145.06;100.00;60892.56;4754654;29;19915;-94
2023/08/12 08:32:52;;;;;;;;;;;;;;;-145.06;100.00;60892.56;4757150;29;19915;-94
2023/08/12 08:35:38;;;;;;;;;;;;;;;-145.06;100.00;60892.56;4777588;29;19915;-94
2023/08/12 08:38:23;;;;;;;;;;;;;;;-145.06;100.00;60892.56;4757179;29;19915;-93
2023/08/12 08:41:05;;;;;;;;;;;;;;;-145.06;100.00;60892.56;4757412;29;19915;-91
2023/08/12 08:47:38;;;;;;;;;;;;;;;;;;;;;
2023/08/12 08:50:37;;;;;;;;;;;;;;;-145.06;100.00;60892.56;4756910;29;19915;-93
2023/08/12 08:53:19;;;;;;;;;;;;;;;-145.06;100.00;60892.56;4738630;29;19915;-95
2023/08/12 08:56:06;;;;;;;;;;;;;;;-145.06;100.00;60892.56;4738456;29;20002;-94
2023/08/12 08:58:46;;;;;;;;;;;;;;;-145.06;100.00;60892.56;4738262;29;20009;-94
2023/08/12 09:01:26;;;;;;;;;;;;;;;-145.06;100.00;60892.56;4737688;29;19974;-93
2023/08/12 09:04:06;;;;;;;;;;;;;;;-145.06;100.00;60892.56;4738861;29;19915;-93
2023/08/12 09:06:46;;;;;;;;;;;;;;;-145.06;100.00;60892.56;4737997;29;20497;-92
2023/08/12 09:09:25;;;;;;;;;;;;;;;-145.06;100.00;60892.56;4738011;29;19956;-92
2023/08/12 09:12:06;;;;;;;;;;;;;;;-145.06;100.00;60892.56;4738071;29;19915;-93
2023/08/12 09:14:45;;;;;;;;;;;;;;;-145.06;100.00;60892.56;4737508;29;19915;-93
2023/08/12 09:17:24;;;;;;;;;;;;;;;-145.06;100.00;60892.56;4737495;29;19916;-93
2023/08/12 09:20:07;;;;;;;;;;;;;;;-145.06;100.00;60892.56;4737936;29;19916;-93
2023/08/12 09:22:54;;;;;;;;;;;;;;;-145.06;100.00;60892.56;4737241;29;19924;-93
2023/08/12 09:25:35;;;;;;;;;;;;;;;-145.06;100.00;60892.56;4737349;29;20243;-93
2023/08/12 09:28:14;;;;;;;;;;;;;;;-145.06;100.00;60892.56;4737323;29;19915;-91
2023/08/12 09:30:52;;;;;;;;;;;;;;;-145.06;100.00;60892.56;4745148;29;19915;-93
2023/08/12 09:33:32;;;;;;;;;;;;;;;-145.06;100.00;60892.56;4755327;29;19915;-92
2023/08/12 09:36:11;;;;;;;;;;;;;;;-145.06;100.00;60892.56;4755449;29;19915;-91
2023/08/12 09:38:51;;;;;;;;;;;;;;;-145.06;100.00;60892.56;4756002;29;20354;-93
2023/08/12 09:41:29;;;;;;;;;;;;;;;-145.06;100.00;60892.56;4734445;29;19923;-93
2023/08/12 09:44:08;;;;;;;;;;;;;;;-145.06;100.00;60892.56;4737369;29;19919;-93
2023/08/12 09:46:47;;;;;;;;;;;;;;;-145.06;100.00;60892.56;4737154;29;19951;-92
2023/08/12 09:49:27;;;;;;;;;;;;;;;-145.06;100.00;60892.56;4737324;29;20275;-93
2023/08/12 09:52:07;;;;;;;;;;;;;;;-145.06;100.00;60892.56;4737361;29;20370;-93
2023/08/12 09:54:47;;;;;;;;;;;;;;;-145.06;100.00;60892.56;4737873;29;20342;-93
2023/08/12 09:57:28;;;;;;;;;;;;;;;-145.06;100.00;60892.56;4719787;29;19919;-92
2023/08/12 10:00:12;;;;;;;;;;;;;;;-145.06;100.00;60892.56;4719073;29;20010;-93
2023/08/12 10:02:52;;;;;;;;;;;;;;;-145.06;100.00;60892.56;4719400;29;19920;-93
2023/08/12 10:05:32;;;;;;;;;;;;;;;-145.06;100.00;60892.56;4727498;29;19958;-93
2023/08/12 10:08:12;;;;;;;;;;;;;;;-145.06;100.00;60892.56;4718949;29;19950;-93
2023/08/12 10:10:52;;;;;;;;;;;;;;;-145.06;100.00;60892.56;4719133;29;19915;-94
2023/08/12 10:13:31;;;;;;;;;;;;;;;-145.06;100.00;60892.56;4719030;29;19920;-93
2023/08/12 10:16:11;;;;;;;;;;;;;;;-145.06;100.00;60892.56;4719704;29;19916;-92
2023/08/12 10:18:51;;;;;;;;;;;;;;;-145.06;100.00;60892.56;4726278;29;19915;-92
2023/08/12 10:21:30;;;;;;;;;;;;;;;-145.06;100.00;60892.56;4724425;29;20042;-92
2023/08/12 10:24:11;;;;;;;;;;;;;;;-145.06;100.00;60892.56;4718336;29;20247;-92
2023/08/12 10:26:51;;;;;;;;;;;;;;;-145.06;100.00;60892.56;4733247;29;19919;-93
2023/08/12 10:29:30;;;;;;;;;;;;;;;-145.06;100.00;60892.56;4749013;29;19946;-93
2023/08/12 10:32:09;;;;;;;;;;;;;;;-145.06;100.00;60892.56;4755480;29;19919;-93
2023/08/12 10:34:54;;;;;;;;;;;;;;;-145.06;100.00;60892.56;4754812;29;20246;-94
2023/08/12 10:37:33;;;;;;;;;;;;;;;-145.06;100.00;60892.56;4755138;29;19997;-91
2023/08/12 10:40:22;;;;;;;;;;;;;;;-145.06;100.00;60892.56;4754545;29;20250;-92
2023/08/12 10:43:01;;;;;;;;;;;;;;;-145.06;100.00;60892.56;4717808;29;19919;-92
2023/08/12 10:45:42;;;;;;;;;;;;;;;-145.06;100.00;60892.56;4717868;29;19915;-93
2023/08/12 10:48:22;;;;;;;;;;;;;;;-145.06;100.00;60892.56;4746817;29;19915;-92
2023/08/12 10:51:01;;;;;;;;;;;;;;;-145.06;100.00;60892.56;4755594;29;19915;-92
2023/08/12 10:53:40;;;;;;;;;;;;;;;-145.06;100.00;60892.56;4759164;29;19915;-92
2023/08/12 10:56:19;;;;;;;;;;;;;;;-145.06;100.00;60892.56;4737799;29;19955;-93
2023/08/12 10:58:59;;;;;;;;;;;;;;;-145.06;100.00;60892.56;4750255;29;19919;-92
2023/08/12 11:01:38;;;;;;;;;;;;;;;-145.06;100.00;60892.56;4753650;29;20013;-92
2023/08/12 11:04:18;;;;;;;;;;;;;;;-145.06;100.00;60892.56;4753045;29;19914;-92
2023/08/12 11:06:57;;;;;;;;;;;;;;;-145.06;100.00;60892.56;4754157;29;19946;-93
2023/08/12 11:09:38;;;;;;;;;;;;;;;-145.06;100.00;60892.56;4774044;29;19914;-92
2023/08/12 11:12:17;;;;;;;;;;;;;;;-145.06;100.00;60892.56;4753894;29;20270;-91
2023/08/12 11:15:00;;;;;;;;;;;;;;;-145.06;100.00;60892.56;4753608;29;20333;-93
2023/08/12 11:17:40;;;;;;;;;;;;;;;-145.06;100.00;60892.56;4753845;29;19918;-92
2023/08/12 11:20:19;;;;;;;;;;;;;;;-145.06;100.00;60892.56;4718946;29;19919;-92
2023/08/12 11:22:59;;;;;;;;;;;;;;;-145.06;100.00;60892.56;4734738;29;19919;-93
2023/08/12 11:25:39;;;;;;;;;;;;;;;-145.06;100.00;60892.56;4735372;29;19958;-92
2023/08/12 11:28:18;;;;;;;;;;;;;;;-145.06;100.00;60892.56;4735114;29;19951;-93
2023/08/12 11:30:57;;;;;;;;;;;;;;;-145.06;100.00;60892.56;4734821;29;20327;-93
2023/08/12 11:33:36;;;;;;;;;;;;;;;-145.06;100.00;60892.56;4735181;29;19915;-92
2023/08/12 11:36:16;;;;;;;;;;;;;;;-145.06;100.00;60892.56;4735129;29;19915;-93
2023/08/12 11:38:56;;;;;;;;;;;;;;;-145.06;100.00;60892.56;4735811;29;20390;-93
2023/08/12 11:41:35;;;;;;;;;;;;;;;-145.06;100.00;60892.56;4735110;29;19920;-93
2023/08/12 11:44:21;;;;;;;;;;;;;;;-145.06;100.00;60892.56;4735323;29;19915;-93
2023/08/12 11:46:59;;;;;;;;;;;;;;;24.34;100.00;60892.56;4735205;29;19919;-92
2023/08/12 11:49:38;;;;;;;;;;;;;;;24.36;100.00;60892.56;4735032;29;20275;-93
2023/08/12 11:52:17;;;;;;;;;;;;;;;24.42;100.00;60892.56;4735337;29;19915;-92
2023/08/12 11:54:56;;;;;;;;;;;;;;;24.48;100.00;60892.56;4735205;29;20012;-93
2023/08/12 11:57:36;;;;;;;;;;;;;;;24.59;100.00;60892.56;4735013;29;19915;-91
2023/08/12 12:00:18;;;;;;;;;;;;;;;24.73;100.00;60892.56;4735517;29;19982;-93
2023/08/12 12:02:57;;;;;;;;;;;;;;;24.87;100.00;60892.56;4716788;29;19919;-92
2023/08/12 12:05:36;;;;;;;;;;;;;;;24.96;100.00;60892.56;4719208;29;20002;-93
2023/08/12 12:08:15;;;;;;;;;;;;;;;-145.06;100.00;60892.56;4720607;29;19915;-92
2023/08/12 12:10:54;;;;;;;;;;;;;;;-145.06;100.00;60892.56;4739049;29;19915;-94
2023/08/12 12:13:34;;;;;;;;;;;;;;;-145.06;100.00;60892.56;4757284;29;19915;-92
2023/08/12 12:16:14;;;;;;;;;;;;;;;-145.06;100.00;60892.56;4756699;29;19914;-93
2023/08/12 12:18:59;;;;;;;;;;;;;;;-145.06;100.00;60892.56;4757388;29;19919;-94
2023/08/12 12:21:39;;;;;;;;;;;;;;;-145.06;100.00;60892.56;4720171;29;19955;-94
2023/08/12 12:24:19;;;;;;;;;;;;;;;-145.06;100.00;60892.56;4725656;29;19985;-94
2023/08/12 12:26:58;;;;;;;;;;;;;;;-145.06;100.00;60892.56;4756656;29;19919;-94
2023/08/12 12:29:37;;;;;;;;;;;;;;;-145.06;100.00;60892.56;4757187;29;19915;-93
2023/08/12 12:32:18;;;;;;;;;;;;;;;-145.06;100.00;60892.56;4757307;29;19918;-94
2023/08/12 12:35:14;;;;;;;;;;;;;;;-145.06;100.00;60892.56;4756803;29;19915;-94
2023/08/12 12:37:56;;;;;;;;;;;;;;;-145.06;100.00;60892.56;4757128;29;19915;-93
2023/08/12 12:40:35;;;;;;;;;;;;;;;-145.06;100.00;60892.56;4756625;29;20255;-92
2023/08/12 12:43:14;;;;;;;;;;;;;;;-145.06;100.00;60892.56;4756183;29;19966;-93
2023/08/12 12:45:53;;;;;;;;;;;;;;;-145.06;100.00;60892.56;4757325;29;19915;-93
2023/08/12 12:48:32;;;;;;;;;;;;;;;-145.06;100.00;60892.56;4756852;29;19915;-93
2023/08/12 12:51:13;;;;;;;;;;;;;;;-145.06;100.00;60892.56;4756621;29;19915;-93
2023/08/12 12:53:55;;;;;;;;;;;;;;;-145.06;100.00;60892.56;4756756;29;19954;-93
2023/08/12 12:56:42;;;;;;;;;;;;;;;-145.06;100.00;60892.56;4756673;29;19915;-94
2023/08/12 12:59:21;;;;;;;;;;;;;;;-145.06;100.00;60892.56;4757060;29;19914;-93
2023/08/12 13:02:00;;;;;;;;;;;;;;;-145.06;100.00;60892.56;4756024;29;19931;-95
2023/08/12 13:04:44;;;;;;;;;;;;;;;-145.06;100.00;60892.56;4756461;29;19919;-94
2023/08/12 13:07:24;;;;;;;;;;;;;;;-145.06;100.00;60892.56;4756173;29;19919;-95
2023/08/12 13:10:07;;;;;;;;;;;;;;;-145.06;100.00;60892.56;4756393;29;20425;-94
2023/08/12 13:12:45;;;;;;;;;;;;;;;-145.06;100.00;60892.56;4756210;29;19998;-93
2023/08/12 13:15:26;;;;;;;;;;;;;;;-145.06;100.00;60892.56;4756216;29;19915;-93
2023/08/12 13:18:05;;;;;;;;;;;;;;;-145.06;100.00;60892.56;4754845;29;20386;-93
2023/08/12 13:20:56;;;;;;;;;;;;;;;-145.06;100.00;60892.56;4755950;29;20247;-95
2023/08/12 13:23:35;;;;;;;;;;;;;;;-145.06;100.00;60892.56;4756102;29;19919;-93
2023/08/12 13:26:34;;;;;;;;;;;;;;;-145.06;100.00;60892.56;4755907;29;19978;-94
2023/08/12 13:29:30;;;;;;;;;;;;;;;;;;;;;
2023/08/12 13:35:39;;;;;;;;;;;;;;;;;;;;;
2023/08/12 13:38:18;;;;;;;;;;;;;;;-145.06;100.00;60892.56;4713207;29;19920;-94
2023/08/12 13:40:57;;;;;;;;;;;;;;;-145.06;100.00;60892.56;4707633;29;19951;-91
2023/08/12 13:43:36;;;;;;;;;;;;;;;-145.06;100.00;60892.56;4738801;29;19923;-92
2023/08/12 13:46:14;;;;;;;;;;;;;;;-145.06;100.00;60892.56;4733078;29;20488;-93
2023/08/12 13:48:53;;;;;;;;;;;;;;;-145.06;100.00;60892.56;4752506;29;19923;-90
2023/08/12 13:51:32;;;;;;;;;;;;;;;-145.06;100.00;60892.56;4750313;29;19919;-93
2023/08/12 13:54:11;;;;;;;;;;;;;;;-145.06;100.00;60892.56;4750097;29;19915;-93
2023/08/12 13:56:50;;;;;;;;;;;;;;;-145.06;100.00;60892.56;4754372;29;19915;-93
2023/08/12 13:59:30;;;;;;;;;;;;;;;-145.06;100.00;60892.56;4737164;29;19923;-94
2023/08/12 14:02:09;;;;;;;;;;;;;;;-145.06;100.00;60892.56;4736794;29;19919;-91
2023/08/12 14:04:48;;;;;;;;;;;;;;;-145.06;100.00;60892.56;4736505;29;19915;-93
2023/08/12 14:07:26;;;;;;;;;;;;;;;-145.06;100.00;60892.56;4740265;29;19919;-92
2023/08/12 14:10:06;;;;;;;;;;;;;;;-145.06;100.00;60892.56;4733516;29;19915;-92
2023/08/12 14:12:45;;;;;;;;;;;;;;;25.73;100.00;60892.56;4720969;29;19916;-92
2023/08/12 14:15:23;;;;;;;;;;;;;;;25.73;100.00;60892.56;4739907;29;19915;-93
2023/08/12 14:18:03;;;;;;;;;;;;;;;25.77;100.00;60892.56;4739398;29;19919;-91
2023/08/12 14:20:42;;;;;;;;;;;;;;;-145.06;100.00;60892.56;4747654;29;19954;-91
2023/08/12 14:23:21;;;;;;;;;;;;;;;-145.06;100.00;60892.56;4756636;29;19919;-92
2023/08/12 14:25:59;;;;;;;;;;;;;;;25.76;100.00;60892.56;4757948;29;20006;-93
2023/08/12 14:28:39;;;;;;;;;;;;;;;25.73;100.00;60892.56;4756510;29;20005;-92
2023/08/12 14:31:20;;;;;;;;;;;;;;;25.72;100.00;60892.56;4752049;29;19919;-92
2023/08/12 14:33:59;;;;;;;;;;;;;;;25.76;100.00;84510.56;4758156;29;19919;-92
2023/08/12 14:36:38;;;;;;;;;;;;;;;25.79;100.00;60892.56;4756163;29;19915;-91
2023/08/12 14:39:17;;;;;;;;;;;;;;;25.85;100.00;60892.56;4748699;29;19918;-91
2023/08/12 14:41:56;;;;;;;;;;;;;;;25.88;100.00;60892.56;4736226;29;19923;-91
2023/08/12 14:44:35;;;;;;;;;;;;;;;25.91;100.00;60892.56;4742759;29;19915;-90
2023/08/12 14:47:14;;;;;;;;;;;;;;;25.95;100.00;60892.56;4725059;29;19919;-90
2023/08/12 14:49:53;;;;;;;;;;;;;;;25.98;100.00;60892.56;4738003;29;19922;-89
2023/08/12 14:52:32;;;;;;;;;;;;;;;-145.06;100.00;60892.56;4744209;29;19915;-91
2023/08/12 14:55:11;;;;;;;;;;;;;;;-145.06;100.00;60892.56;4752884;29;19948;-91
2023/08/12 14:57:50;;;;;;;;;;;;;;;25.99;100.00;60892.56;4733252;29;19915;-91
2023/08/12 15:00:29;;;;;;;;;;;;;;;-145.06;100.00;60892.56;4737503;29;19927;-91
2023/08/12 15:03:10;;;;;;;;;;;;;;;25.98;100.00;60892.56;4732686;29;19927;-90
2023/08/12 15:05:58;;;;;;;;;;;;;;;25.98;100.00;60892.56;4750516;29;19927;-90
2023/08/12 15:08:37;;;;;;;;;;;;;;;25.98;100.00;60892.56;4732450;29;19955;-91
2023/08/12 15:11:16;;;;;;;;;;;;;;;25.99;100.00;60892.56;4744182;29;19923;-90
2023/08/12 15:13:55;;;;;;;;;;;;;;;26.02;100.00;60892.56;4733757;29;19919;-90
2023/08/12 15:16:34;;;;;;;;;;;;;;;-145.06;100.00;60892.56;4731767;29;19919;-92
2023/08/12 15:19:13;;;;;;;;;;;;;;;-145.06;100.00;60892.56;4731921;29;19919;-90
2023/08/12 15:21:52;;;;;;;;;;;;;;;-145.06;100.00;60892.56;4749782;29;19927;-91
2023/08/12 15:24:31;;;;;;;;;;;;;;;-145.06;100.00;60892.56;4750952;29;19915;-92
2023/08/12 15:27:10;;;;;;;;;;;;;;;-145.06;100.00;60892.56;4739719;29;19919;-92
2023/08/12 15:29:49;;;;;;;;;;;;;;;-145.06;100.00;60892.56;4747668;29;19915;-93
2023/08/12 15:32:30;;;;;;;;;;;;;;;-145.06;100.00;60892.56;4737159;29;19919;-91
2023/08/12 15:35:09;;;;;;;;;;;;;;;-145.06;100.00;60892.56;4754102;29;19923;-92
2023/08/12 15:37:48;;;;;;;;;;;;;;;-145.06;100.00;60892.56;4746280;29;19919;-91
2023/08/12 15:40:28;;;;;;;;;;;;;;;-145.06;100.00;60892.56;4754324;29;19978;-91
2023/08/12 15:43:06;;;;;;;;;;;;;;;-145.06;100.00;60892.56;4736917;29;19923;-92
2023/08/12 15:45:45;;;;;;;;;;;;;;;26.00;100.00;60892.56;4757105;29;19919;-93
2023/08/12 15:48:24;;;;;;;;;;;;;;;25.95;100.00;60892.56;4751074;29;20259;-92
2023/08/12 15:51:03;;;;;;;;;;;;;;;-145.06;100.00;60892.56;4748569;29;19918;-92
2023/08/12 15:53:42;;;;;;;;;;;;;;;-145.06;100.00;60892.56;4750379;29;19915;-91
2023/08/12 15:56:22;;;;;;;;;;;;;;;25.90;100.00;60892.56;4738793;29;19962;-94
2023/08/12 15:59:01;;;;;;;;;;;;;;;25.87;100.00;60892.56;4744322;29;19919;-91
2023/08/12 16:01:40;;;;;;;;;;;;;;;25.84;100.00;87440.63;4735394;29;19927;-94
2023/08/12 16:04:18;;;;;;;;;;;;;;;25.80;100.00;60892.56;4726295;29;19919;-89
2023/08/12 16:06:57;;;;;;;;;;;;;;;25.77;100.00;60892.56;4732239;29;19946;-90
2023/08/12 16:09:36;;;;;;;;;;;;;;;25.72;100.00;60892.56;4733659;29;20267;-91
2023/08/12 16:12:18;;;;;;;;;;;;;;;25.66;100.00;93348.00;4728056;29;20374;-90
2023/08/12 16:14:57;;;;;;;;;;;;;;;-145.06;100.00;60892.56;4766210;29;19945;-92
2023/08/12 16:17:36;;;;;;;;;;;;;;;-145.06;100.00;60892.56;4731051;29;19923;-91
2023/08/12 16:20:15;;;;;;;;;;;;;;;-145.06;100.00;60892.56;4734147;23;19927;-92
2023/08/12 16:27:07;;;;;;;;;;;;;;;-145.06;100.00;60892.56;4715323;29;19915;-94
2023/08/12 16:29:54;;;;;;;;;;;;;;;-145.06;100.00;60892.56;4731477;29;19924;-93
2023/08/12 16:32:33;;;;;;;;;;;;;;;-145.06;100.00;60892.56;4712749;29;20035;-91
2023/08/12 16:35:12;;;;;;;;;;;;;;;-145.06;100.00;60892.56;4704553;29;19919;-91
2023/08/12 16:37:51;;;;;;;;;;;;;;;-145.06;100.00;60892.56;4711921;29;19919;-92
2023/08/12 16:40:30;;;;;;;;;;;;;;;-145.06;100.00;60892.56;4734965;29;19927;-91
2023/08/12 16:43:09;;;;;;;;;;;;;;;-145.06;100.00;60892.56;4710428;29;20274;-91
2023/08/12 16:45:48;;;;;;;;;;;;;;;-145.06;100.00;60892.56;4730975;29;20284;-91
2023/08/12 16:48:27;;;;;;;;;;;;;;;-145.06;100.00;60892.56;4715931;29;20013;-91
2023/08/12 16:51:06;;;;;;;;;;;;;;;-145.06;100.00;60892.56;4723952;29;19923;-92
2023/08/12 16:53:45;;;;;;;;;;;;;;;-145.06;100.00;60892.56;4716479;29;19919;-92
2023/08/12 16:56:24;;;;;;;;;;;;;;;-145.06;100.00;60892.56;4721034;29;19919;-91
2023/08/12 16:59:03;;;;;;;;;;;;;;;-145.06;100.00;60892.56;4717001;29;20006;-92
2023/08/12 17:01:43;;;;;;;;;;;;;;;-145.06;100.00;60892.56;4730031;29;20264;-91
2023/08/12 17:04:22;;;;;;;;;;;;;;;-145.06;100.00;60892.56;4718263;29;19919;-90
2023/08/12 17:07:02;;;;;;;;;;;;;;;-145.06;100.00;60892.56;4719146;29;19915;-90
2023/08/12 17:09:41;;;;;;;;;;;;;;;-145.06;100.00;60892.56;4716487;29;20295;-91
2023/08/12 17:12:20;;;;;;;;;;;;;;;-145.06;100.00;60892.56;4716128;29;20018;-90
2023/08/12 17:14:59;;;;;;;;;;;;;;;-145.06;100.00;60892.56;4722003;29;19919;-92
2023/08/12 17:17:38;;;;;;;;;;;;;;;-145.06;100.00;60892.56;4710190;29;19923;-92
2023/08/12 17:20:17;;;;;;;;;;;;;;;-145.06;100.00;60892.56;4718241;29;20267;-91
2023/08/12 17:22:56;;;;;;;;;;;;;;;-145.06;100.00;60892.56;4720245;29;19923;-90
2023/08/12 17:25:38;;;;;;;;;;;;;;;-145.06;100.00;60892.56;4736609;29;20044;-91
2023/08/12 17:28:17;;;;;;;;;;;;;;;-145.06;100.00;60892.56;4715466;29;19923;-92
2023/08/12 17:30:56;;;;;;;;;;;;;;;-145.06;100.00;60892.56;4707936;29;19919;-90
2023/08/12 17:33:35;;;;;;;;;;;;;;;-145.06;100.00;60892.56;4729288;29;20537;-91
2023/08/12 17:36:14;;;;;;;;;;;;;;;-145.06;100.00;60892.56;4719748;29;19919;-91
2023/08/12 17:38:53;;;;;;;;;;;;;;;-145.06;100.00;60892.56;4721984;29;19920;-91
2023/08/12 17:41:32;;;;;;;;;;;;;;;-145.06;100.00;60892.56;4716917;29;20034;-91
2023/08/12 17:44:11;;;;;;;;;;;;;;;-145.06;100.00;60892.56;4717102;29;20366;-91